Carthage, Maine
Current Conditions -  °F | °C
As of 5:53 AM on Wednesday 26 Nov 2014 (Local Time) from KAUG Reporting Station
Clear Clear  
Wind Chill: 37°   Ceiling: Unl
Heat Index: 40°   Visibility: 10mi
Dew Point: 23°   Wind: 5mph
Humidity: 51%   Direction: 310°NW
Pressure: 30.17"   Gusts: NA
Location:  44.5803°N, 70.4003°W
Report Text: KAUG 261053Z AUTO 31004KT 10SM CLR 04/M05 A3017 RMK AO2 SLP219 T00441050
Loading
Personal Weather Stations






























Interactive Weather Map New forecast layout! Learn more

10-Day Weather Forecast

Advertisements
Track Severe Weather on mobile